sensor_id;sensor_type;location;lat;lon;timestamp;pressure;altitude;pressure_sealevel;temperature;humidity
20710;BME280;10516;51.518;9.864;2023-04-21T00:00:53;98761.63;;;7.06;92.94
20710;BME280;10516;51.518;9.864;2023-04-21T00:03:19;98768.78;;;7.06;92.81
20710;BME280;10516;51.518;9.864;2023-04-21T00:05:46;98763.69;;;7.04;93.57
20710;BME280;10516;51.518;9.864;2023-04-21T00:08:12;98769.34;;;7.08;93.09
20710;BME280;10516;51.518;9.864;2023-04-21T00:10:37;98760.03;;;7.05;94.06
20710;BME280;10516;51.518;9.864;2023-04-21T00:13:03;98758.72;;;7.08;92.67
20710;BME280;10516;51.518;9.864;2023-04-21T00:15:28;98753.91;;;7.05;93.23
20710;BME280;10516;51.518;9.864;2023-04-21T00:17:53;98754.25;;;7.08;92.40
20710;BME280;10516;51.518;9.864;2023-04-21T00:20:18;98751.59;;;7.08;92.18
20710;BME280;10516;51.518;9.864;2023-04-21T00:22:44;98744.88;;;7.06;93.12
20710;BME280;10516;51.518;9.864;2023-04-21T00:25:09;98739.13;;;7.09;92.16
20710;BME280;10516;51.518;9.864;2023-04-21T00:27:35;98742.03;;;7.07;91.37
20710;BME280;10516;51.518;9.864;2023-04-21T00:30:00;98735.66;;;7.08;91.32
20710;BME280;10516;51.518;9.864;2023-04-21T00:32:25;98728.19;;;7.17;89.82
20710;BME280;10516;51.518;9.864;2023-04-21T00:34:50;98730.94;;;7.10;90.77
20710;BME280;10516;51.518;9.864;2023-04-21T00:37:16;98717.78;;;7.15;90.93
20710;BME280;10516;51.518;9.864;2023-04-21T00:39:41;98721.72;;;7.13;92.53
20710;BME280;10516;51.518;9.864;2023-04-21T00:42:06;98725.31;;;7.18;90.30
20710;BME280;10516;51.518;9.864;2023-04-21T00:44:31;98736.50;;;7.20;89.83
20710;BME280;10516;51.518;9.864;2023-04-21T00:46:57;98739.63;;;7.29;87.91
20710;BME280;10516;51.518;9.864;2023-04-21T00:49:22;98736.16;;;7.51;83.95
20710;BME280;10516;51.518;9.864;2023-04-21T00:51:48;98744.38;;;7.50;85.53
20710;BME280;10516;51.518;9.864;2023-04-21T00:54:14;98752.66;;;7.53;84.23
20710;BME280;10516;51.518;9.864;2023-04-21T00:56:39;98747.72;;;7.45;85.67
20710;BME280;10516;51.518;9.864;2023-04-21T00:59:05;98750.22;;;7.40;88.16
20710;BME280;10516;51.518;9.864;2023-04-21T01:01:30;98746.53;;;7.65;81.12
20710;BME280;10516;51.518;9.864;2023-04-21T01:03:59;98750.34;;;7.34;87.51
20710;BME280;10516;51.518;9.864;2023-04-21T01:06:28;98748.97;;;7.31;87.10
20710;BME280;10516;51.518;9.864;2023-04-21T01:08:54;98759.38;;;7.56;82.56
20710;BME280;10516;51.518;9.864;2023-04-21T01:11:19;98752.91;;;7.75;79.26
20710;BME280;10516;51.518;9.864;2023-04-21T01:13:45;98759.94;;;7.81;78.91
20710;BME280;10516;51.518;9.864;2023-04-21T01:16:14;98758.19;;;7.87;78.87
20710;BME280;10516;51.518;9.864;2023-04-21T01:18:40;98756.94;;;7.89;77.94
20710;BME280;10516;51.518;9.864;2023-04-21T01:21:05;98758.56;;;7.79;79.00
20710;BME280;10516;51.518;9.864;2023-04-21T01:23:31;98753.94;;;7.74;78.97
20710;BME280;10516;51.518;9.864;2023-04-21T01:25:56;98753.94;;;7.74;78.62
20710;BME280;10516;51.518;9.864;2023-04-21T01:28:22;98750.81;;;7.19;84.79
20710;BME280;10516;51.518;9.864;2023-04-21T01:30:47;98753.03;;;7.45;80.63
20710;BME280;10516;51.518;9.864;2023-04-21T01:33:13;98746.66;;;7.70;79.36
20710;BME280;10516;51.518;9.864;2023-04-21T01:35:38;98750.38;;;7.69;79.05
20710;BME280;10516;51.518;9.864;2023-04-21T01:38:04;98752.22;;;7.68;79.28
20710;BME280;10516;51.518;9.864;2023-04-21T01:40:29;98760.63;;;7.77;78.12
20710;BME280;10516;51.518;9.864;2023-04-21T01:42:55;98756.03;;;7.72;77.85
20710;BME280;10516;51.518;9.864;2023-04-21T01:45:20;98761.22;;;7.32;82.13
20710;BME280;10516;51.518;9.864;2023-04-21T01:47:45;98752.88;;;7.40;79.47
20710;BME280;10516;51.518;9.864;2023-04-21T01:50:11;98747.91;;;7.21;82.31
20710;BME280;10516;51.518;9.864;2023-04-21T01:52:36;98749.31;;;7.35;80.47
20710;BME280;10516;51.518;9.864;2023-04-21T01:55:02;98746.31;;;7.31;81.67
20710;BME280;10516;51.518;9.864;2023-04-21T01:57:28;98749.56;;;7.33;80.67
20710;BME280;10516;51.518;9.864;2023-04-21T01:59:53;98743.97;;;7.00;83.85
20710;BME280;10516;51.518;9.864;2023-04-21T02:02:18;98743.00;;;6.83;85.54
20710;BME280;10516;51.518;9.864;2023-04-21T02:04:44;98733.28;;;7.18;81.00
20710;BME280;10516;51.518;9.864;2023-04-21T02:07:09;98733.50;;;7.05;82.39
20710;BME280;10516;51.518;9.864;2023-04-21T02:09:34;98740.22;;;6.78;87.69
20710;BME280;10516;51.518;9.864;2023-04-21T02:12:00;98733.19;;;6.72;87.05
20710;BME280;10516;51.518;9.864;2023-04-21T02:14:26;98740.66;;;6.75;87.64
20710;BME280;10516;51.518;9.864;2023-04-21T02:16:51;98741.94;;;6.72;87.79
20710;BME280;10516;51.518;9.864;2023-04-21T02:19:16;98745.06;;;6.51;91.71
20710;BME280;10516;51.518;9.864;2023-04-21T02:21:42;98742.91;;;6.60;91.17
20710;BME280;10516;51.518;9.864;2023-04-21T02:24:07;98735.56;;;7.03;82.04
20710;BME280;10516;51.518;9.864;2023-04-21T02:26:32;98733.13;;;7.02;84.38
20710;BME280;10516;51.518;9.864;2023-04-21T02:28:57;98747.63;;;6.88;86.32
20710;BME280;10516;51.518;9.864;2023-04-21T02:31:23;98738.81;;;7.28;79.75
20710;BME280;10516;51.518;9.864;2023-04-21T02:33:48;98743.78;;;7.36;78.62
20710;BME280;10516;51.518;9.864;2023-04-21T02:36:13;98736.97;;;7.40;79.11
20710;BME280;10516;51.518;9.864;2023-04-21T02:38:38;98739.84;;;7.39;79.87
20710;BME280;10516;51.518;9.864;2023-04-21T02:41:04;98743.34;;;7.51;78.00
20710;BME280;10516;51.518;9.864;2023-04-21T02:43:29;98739.50;;;7.58;77.48
20710;BME280;10516;51.518;9.864;2023-04-21T02:45:55;98750.00;;;7.65;78.05
20710;BME280;10516;51.518;9.864;2023-04-21T02:48:20;98749.00;;;7.66;77.14
20710;BME280;10516;51.518;9.864;2023-04-21T02:50:49;98746.91;;;7.56;77.58
20710;BME280;10516;51.518;9.864;2023-04-21T02:53:14;98754.59;;;7.23;80.32
20710;BME280;10516;51.518;9.864;2023-04-21T02:55:40;98751.16;;;7.23;80.57
20710;BME280;10516;51.518;9.864;2023-04-21T02:58:05;98749.66;;;7.38;78.05
20710;BME280;10516;51.518;9.864;2023-04-21T03:00:31;98753.03;;;7.45;78.09
20710;BME280;10516;51.518;9.864;2023-04-21T03:02:56;98751.06;;;7.52;78.04
20710;BME280;10516;51.518;9.864;2023-04-21T03:05:21;98751.75;;;7.60;77.79
20710;BME280;10516;51.518;9.864;2023-04-21T03:07:46;98744.13;;;7.51;77.65
20710;BME280;10516;51.518;9.864;2023-04-21T03:10:12;98746.56;;;7.53;77.54
20710;BME280;10516;51.518;9.864;2023-04-21T03:12:37;98748.41;;;7.52;76.90
20710;BME280;10516;51.518;9.864;2023-04-21T03:15:02;98738.81;;;7.51;76.92
20710;BME280;10516;51.518;9.864;2023-04-21T03:17:28;98741.25;;;7.53;77.53
20710;BME280;10516;51.518;9.864;2023-04-21T03:19:53;98742.53;;;7.50;77.44
20710;BME280;10516;51.518;9.864;2023-04-21T03:22:18;98739.88;;;7.50;77.28
20710;BME280;10516;51.518;9.864;2023-04-21T03:24:43;98744.03;;;7.46;77.84
20710;BME280;10516;51.518;9.864;2023-04-21T03:27:09;98743.44;;;7.44;77.05
20710;BME280;10516;51.518;9.864;2023-04-21T03:29:34;98742.97;;;7.47;77.51
20710;BME280;10516;51.518;9.864;2023-04-21T03:32:00;98740.53;;;7.34;78.36
20710;BME280;10516;51.518;9.864;2023-04-21T03:34:25;98744.13;;;7.51;77.24
20710;BME280;10516;51.518;9.864;2023-04-21T03:36:51;98741.47;;;7.40;77.94
20710;BME280;10516;51.518;9.864;2023-04-21T03:39:16;98748.28;;;7.47;77.41
20710;BME280;10516;51.518;9.864;2023-04-21T03:41:41;98742.75;;;7.37;77.04
20710;BME280;10516;51.518;9.864;2023-04-21T03:44:06;98731.56;;;7.35;77.98
20710;BME280;10516;51.518;9.864;2023-04-21T03:46:31;98735.34;;;7.39;77.04
20710;BME280;10516;51.518;9.864;2023-04-21T03:48:57;98739.16;;;7.32;77.60
20710;BME280;10516;51.518;9.864;2023-04-21T03:51:22;98733.63;;;7.33;77.26
20710;BME280;10516;51.518;9.864;2023-04-21T03:53:47;98737.19;;;7.27;78.24
20710;BME280;10516;51.518;9.864;2023-04-21T03:56:13;98730.59;;;7.30;77.03
20710;BME280;10516;51.518;9.864;2023-04-21T03:58:38;98736.00;;;6.29;83.15
20710;BME280;10516;51.518;9.864;2023-04-21T04:01:04;98723.28;;;6.91;79.77
20710;BME280;10516;51.518;9.864;2023-04-21T04:03:29;98720.19;;;6.94;79.71
20710;BME280;10516;51.518;9.864;2023-04-21T04:05:54;98722.97;;;7.10;78.35
20710;BME280;10516;51.518;9.864;2023-04-21T04:08:20;98713.91;;;7.29;77.75
20710;BME280;10516;51.518;9.864;2023-04-21T04:10:45;98716.06;;;7.32;77.78
20710;BME280;10516;51.518;9.864;2023-04-21T04:13:10;98714.69;;;7.18;77.91
20710;BME280;10516;51.518;9.864;2023-04-21T04:15:36;98706.38;;;7.15;78.08
20710;BME280;10516;51.518;9.864;2023-04-21T04:18:01;98717.69;;;7.22;78.17
20710;BME280;10516;51.518;9.864;2023-04-21T04:20:26;98720.31;;;6.99;79.81
20710;BME280;10516;51.518;9.864;2023-04-21T04:22:51;98720.88;;;6.48;85.15
20710;BME280;10516;51.518;9.864;2023-04-21T04:25:17;98722.44;;;6.37;87.67
20710;BME280;10516;51.518;9.864;2023-04-21T04:27:42;98726.56;;;6.63;83.13
20710;BME280;10516;51.518;9.864;2023-04-21T04:30:13;98726.19;;;6.89;80.36
20710;BME280;10516;51.518;9.864;2023-04-21T04:32:39;98730.25;;;7.15;78.81
20710;BME280;10516;51.518;9.864;2023-04-21T04:35:05;98731.19;;;7.20;78.25
20710;BME280;10516;51.518;9.864;2023-04-21T04:37:30;98728.75;;;7.19;78.28
20710;BME280;10516;51.518;9.864;2023-04-21T04:39:58;98734.63;;;6.98;80.55
20710;BME280;10516;51.518;9.864;2023-04-21T04:42:23;98731.28;;;7.25;77.85
20710;BME280;10516;51.518;9.864;2023-04-21T04:44:51;98729.53;;;6.96;83.60
20710;BME280;10516;51.518;9.864;2023-04-21T04:47:17;98733.94;;;7.02;82.27
20710;BME280;10516;51.518;9.864;2023-04-21T04:49:42;98730.81;;;6.94;82.22
20710;BME280;10516;51.518;9.864;2023-04-21T04:52:07;98740.66;;;6.75;85.99
20710;BME280;10516;51.518;9.864;2023-04-21T04:54:33;98745.19;;;6.86;83.88
20710;BME280;10516;51.518;9.864;2023-04-21T04:56:58;98742.03;;;6.66;88.12
20710;BME280;10516;51.518;9.864;2023-04-21T04:59:23;98741.56;;;6.99;82.84
20710;BME280;10516;51.518;9.864;2023-04-21T05:01:49;98750.34;;;7.34;80.11
20710;BME280;10516;51.518;9.864;2023-04-21T05:04:14;98749.09;;;7.36;79.07
20710;BME280;10516;51.518;9.864;2023-04-21T05:06:40;98756.81;;;7.26;82.01
20710;BME280;10516;51.518;9.864;2023-04-21T05:09:06;98754.72;;;7.05;86.68
20710;BME280;10516;51.518;9.864;2023-04-21T05:11:31;98756.31;;;7.06;86.35
20710;BME280;10516;51.518;9.864;2023-04-21T05:13:56;98751.28;;;7.16;83.76
20710;BME280;10516;51.518;9.864;2023-04-21T05:16:22;98756.81;;;7.26;82.32
20710;BME280;10516;51.518;9.864;2023-04-21T05:18:47;98758.69;;;7.49;81.95
20710;BME280;10516;51.518;9.864;2023-04-21T05:21:21;98763.16;;;7.37;82.62
20710;BME280;10516;51.518;9.864;2023-04-21T05:23:46;98761.56;;;7.59;81.00
20710;BME280;10516;51.518;9.864;2023-04-21T05:26:11;98766.78;;;7.42;87.30
20710;BME280;10516;51.518;9.864;2023-04-21T05:28:36;98764.22;;;7.47;86.63
20710;BME280;10516;51.518;9.864;2023-04-21T05:31:02;98754.63;;;7.81;79.42
20710;BME280;10516;51.518;9.864;2023-04-21T05:33:27;98750.00;;;7.88;79.87
20710;BME280;10516;51.518;9.864;2023-04-21T05:35:55;98760.28;;;7.85;81.94
20710;BME280;10516;51.518;9.864;2023-04-21T05:38:21;98765.00;;;7.71;84.15
20710;BME280;10516;51.518;9.864;2023-04-21T05:40:53;98761.81;;;7.57;88.96
20710;BME280;10516;51.518;9.864;2023-04-21T05:43:19;98756.34;;;7.87;80.98
20710;BME280;10516;51.518;9.864;2023-04-21T05:45:44;98756.72;;;7.68;87.70
20710;BME280;10516;51.518;9.864;2023-04-21T05:48:09;98755.91;;;7.67;86.49
20710;BME280;10516;51.518;9.864;2023-04-21T05:50:35;98756.97;;;7.66;85.74
20710;BME280;10516;51.518;9.864;2023-04-21T05:53:00;98765.13;;;7.65;87.44
20710;BME280;10516;51.518;9.864;2023-04-21T05:55:26;98755.78;;;7.74;86.18
20710;BME280;10516;51.518;9.864;2023-04-21T05:57:51;98750.13;;;7.58;89.67
20710;BME280;10516;51.518;9.864;2023-04-21T06:00:16;98751.66;;;7.66;83.26
20710;BME280;10516;51.518;9.864;2023-04-21T06:02:42;98748.84;;;7.84;81.68
20710;BME280;10516;51.518;9.864;2023-04-21T06:05:07;98754.84;;;7.91;82.14
20710;BME280;10516;51.518;9.864;2023-04-21T06:07:32;98745.63;;;7.71;87.60
20710;BME280;10516;51.518;9.864;2023-04-21T06:10:01;98750.34;;;7.80;83.83
20710;BME280;10516;51.518;9.864;2023-04-21T06:12:26;98744.59;;;7.72;86.54
20710;BME280;10516;51.518;9.864;2023-04-21T06:14:51;98748.88;;;7.61;88.17
20710;BME280;10516;51.518;9.864;2023-04-21T06:17:21;98750.13;;;7.58;90.31
20710;BME280;10516;51.518;9.864;2023-04-21T06:19:46;98738.94;;;7.68;88.58
20710;BME280;10516;51.518;9.864;2023-04-21T06:22:16;98746.31;;;7.78;87.04
20710;BME280;10516;51.518;9.864;2023-04-21T06:24:42;98748.06;;;7.84;88.47
20710;BME280;10516;51.518;9.864;2023-04-21T06:27:10;98746.78;;;7.86;91.21
20710;BME280;10516;51.518;9.864;2023-04-21T06:29:36;98747.56;;;7.87;91.95
20710;BME280;10516;51.518;9.864;2023-04-21T06:32:02;98744.44;;;8.01;88.93
20710;BME280;10516;51.518;9.864;2023-04-21T06:34:27;98753.78;;;8.27;80.67
20710;BME280;10516;51.518;9.864;2023-04-21T06:36:52;98752.94;;;8.26;85.43
20710;BME280;10516;51.518;9.864;2023-04-21T06:39:17;98746.19;;;8.47;80.46
20710;BME280;10516;51.518;9.864;2023-04-21T06:41:43;98746.25;;;8.52;84.33
20710;BME280;10516;51.518;9.864;2023-04-21T06:44:08;98737.09;;;8.60;79.75
20710;BME280;10516;51.518;9.864;2023-04-21T06:46:37;98739.72;;;8.71;79.10
20710;BME280;10516;51.518;9.864;2023-04-21T06:49:03;98746.34;;;8.85;78.22
20710;BME280;10516;51.518;9.864;2023-04-21T06:51:28;98741.03;;;8.85;80.51
20710;BME280;10516;51.518;9.864;2023-04-21T06:53:53;98738.09;;;8.70;82.69
20710;BME280;10516;51.518;9.864;2023-04-21T06:56:18;98736.91;;;8.78;82.37
20710;BME280;10516;51.518;9.864;2023-04-21T06:58:44;98744.56;;;8.74;84.12
20710;BME280;10516;51.518;9.864;2023-04-21T07:01:11;98749.91;;;8.91;83.05
20710;BME280;10516;51.518;9.864;2023-04-21T07:03:36;98739.91;;;8.98;84.29
20710;BME280;10516;51.518;9.864;2023-04-21T07:06:01;98739.69;;;8.99;83.46
20710;BME280;10516;51.518;9.864;2023-04-21T07:08:26;98739.75;;;9.04;86.25
20710;BME280;10516;51.518;9.864;2023-04-21T07:10:52;98739.03;;;9.09;85.59
20710;BME280;10516;51.518;9.864;2023-04-21T07:13:17;98736.72;;;9.13;85.70
20710;BME280;10516;51.518;9.864;2023-04-21T07:15:42;98733.88;;;9.19;85.16
20710;BME280;10516;51.518;9.864;2023-04-21T07:18:08;98741.94;;;9.24;85.42
20710;BME280;10516;51.518;9.864;2023-04-21T07:20:33;98741.31;;;9.34;85.69
20710;BME280;10516;51.518;9.864;2023-04-21T07:22:58;98743.50;;;9.37;83.94
20710;BME280;10516;51.518;9.864;2023-04-21T07:25:24;98734.91;;;9.51;84.10
20710;BME280;10516;51.518;9.864;2023-04-21T07:27:49;98739.25;;;9.74;82.74
20710;BME280;10516;51.518;9.864;2023-04-21T07:30:15;98737.94;;;9.76;80.98
20710;BME280;10516;51.518;9.864;2023-04-21T07:32:42;98740.31;;;9.95;80.65
20710;BME280;10516;51.518;9.864;2023-04-21T07:35:07;98736.16;;;10.04;81.14
20710;BME280;10516;51.518;9.864;2023-04-21T07:37:33;98740.88;;;10.13;80.56
20710;BME280;10516;51.518;9.864;2023-04-21T07:39:58;98739.78;;;10.14;79.45
20710;BME280;10516;51.518;9.864;2023-04-21T07:42:23;98739.88;;;10.19;79.25
20710;BME280;10516;51.518;9.864;2023-04-21T07:44:50;98739.69;;;10.26;79.09
20710;BME280;10516;51.518;9.864;2023-04-21T07:47:16;98744.75;;;10.27;79.28
20710;BME280;10516;51.518;9.864;2023-04-21T07:49:42;98737.38;;;10.34;77.76
20710;BME280;10516;51.518;9.864;2023-04-21T07:52:07;98740.66;;;10.41;78.67
20710;BME280;10516;51.518;9.864;2023-04-21T07:54:32;98742.03;;;10.44;77.85
20710;BME280;10516;51.518;9.864;2023-04-21T07:56:58;98738.16;;;10.57;77.90
20710;BME280;10516;51.518;9.864;2023-04-21T07:59:23;98733.88;;;10.55;76.74
20710;BME280;10516;51.518;9.864;2023-04-21T08:01:48;98736.59;;;10.61;77.51
20710;BME280;10516;51.518;9.864;2023-04-21T08:04:15;98728.09;;;10.64;76.96
20710;BME280;10516;51.518;9.864;2023-04-21T08:06:41;98724.78;;;10.78;77.12
20710;BME280;10516;51.518;9.864;2023-04-21T08:09:06;98727.53;;;10.88;77.77
20710;BME280;10516;51.518;9.864;2023-04-21T08:11:31;98722.16;;;10.83;76.89
20710;BME280;10516;51.518;9.864;2023-04-21T08:13:56;98725.38;;;10.85;77.55
20710;BME280;10516;51.518;9.864;2023-04-21T08:16:22;98725.19;;;10.97;76.93
20710;BME280;10516;51.518;9.864;2023-04-21T08:18:47;98728.53;;;11.14;76.75
20710;BME280;10516;51.518;9.864;2023-04-21T08:21:12;98725.09;;;11.13;76.74
20710;BME280;10516;51.518;9.864;2023-04-21T08:23:38;98725.38;;;11.17;76.44
20710;BME280;10516;51.518;9.864;2023-04-21T08:26:04;98733.47;;;11.27;76.27
20710;BME280;10516;51.518;9.864;2023-04-21T08:28:29;98726.25;;;11.27;75.36
20710;BME280;10516;51.518;9.864;2023-04-21T08:30:54;98725.59;;;11.47;75.79
20710;BME280;10516;51.518;9.864;2023-04-21T08:33:20;98723.97;;;11.41;75.93
20710;BME280;10516;51.518;9.864;2023-04-21T08:35:45;98724.00;;;11.46;74.83
20710;BME280;10516;51.518;9.864;2023-04-21T08:38:10;98721.13;;;11.53;74.89
20710;BME280;10516;51.518;9.864;2023-04-21T08:40:36;98718.16;;;11.54;74.10
20710;BME280;10516;51.518;9.864;2023-04-21T08:43:03;98709.97;;;11.66;74.29
20710;BME280;10516;51.518;9.864;2023-04-21T08:45:28;98710.34;;;11.79;73.88
20710;BME280;10516;51.518;9.864;2023-04-21T08:47:54;98717.34;;;11.90;73.76
20710;BME280;10516;51.518;9.864;2023-04-21T08:50:19;98714.41;;;11.92;73.52
20710;BME280;10516;51.518;9.864;2023-04-21T08:52:46;98711.28;;;12.05;72.85
20710;BME280;10516;51.518;9.864;2023-04-21T08:55:11;98718.28;;;12.21;72.48
20710;BME280;10516;51.518;9.864;2023-04-21T08:57:37;98701.44;;;12.21;71.47
20710;BME280;10516;51.518;9.864;2023-04-21T09:00:02;98710.78;;;12.23;72.20
20710;BME280;10516;51.518;9.864;2023-04-21T09:02:28;98705.75;;;12.27;73.17
20710;BME280;10516;51.518;9.864;2023-04-21T09:04:54;98707.66;;;12.41;73.01
20710;BME280;10516;51.518;9.864;2023-04-21T09:07:30;98710.88;;;12.38;71.64
20710;BME280;10516;51.518;9.864;2023-04-21T09:09:56;98702.06;;;12.53;72.52
20710;BME280;10516;51.518;9.864;2023-04-21T09:12:22;98699.41;;;12.63;70.72
20710;BME280;10516;51.518;9.864;2023-04-21T09:14:48;98699.66;;;12.61;70.55
20710;BME280;10516;51.518;9.864;2023-04-21T09:17:16;98693.53;;;12.66;69.36
20710;BME280;10516;51.518;9.864;2023-04-21T09:19:42;98702.63;;;12.80;70.86
20710;BME280;10516;51.518;9.864;2023-04-21T09:22:07;98700.78;;;12.91;70.58
20710;BME280;10516;51.518;9.864;2023-04-21T09:24:32;98706.13;;;12.96;71.71
20710;BME280;10516;51.518;9.864;2023-04-21T09:26:58;98698.69;;;13.08;71.36
20710;BME280;10516;51.518;9.864;2023-04-21T09:29:26;98704.59;;;13.10;70.73
20710;BME280;10516;51.518;9.864;2023-04-21T09:31:51;98704.56;;;13.20;70.29
20710;BME280;10516;51.518;9.864;2023-04-21T09:34:18;98695.72;;;13.19;70.14
20710;BME280;10516;51.518;9.864;2023-04-21T09:36:44;98701.91;;;13.25;70.77
20710;BME280;10516;51.518;9.864;2023-04-21T09:39:10;98696.25;;;13.41;69.86
20710;BME280;10516;51.518;9.864;2023-04-21T09:41:35;98690.88;;;13.41;68.61
20710;BME280;10516;51.518;9.864;2023-04-21T09:44:01;98699.44;;;13.48;68.29
20710;BME280;10516;51.518;9.864;2023-04-21T09:46:28;98697.31;;;13.61;70.36
20710;BME280;10516;51.518;9.864;2023-04-21T09:48:54;98698.09;;;13.66;68.93
20710;BME280;10516;51.518;9.864;2023-04-21T09:51:19;98696.22;;;13.67;69.19
20710;BME280;10516;51.518;9.864;2023-04-21T09:53:46;98693.22;;;13.78;70.12
20710;BME280;10516;51.518;9.864;2023-04-21T09:56:14;98688.66;;;13.84;68.74
20710;BME280;10516;51.518;9.864;2023-04-21T09:59:01;98689.13;;;13.96;69.55
20710;BME280;10516;51.518;9.864;2023-04-21T10:01:26;98680.03;;;13.92;67.82
20710;BME280;10516;51.518;9.864;2023-04-21T10:03:53;98674.34;;;14.08;67.38
20710;BME280;10516;51.518;9.864;2023-04-21T10:06:18;98671.38;;;14.10;66.67
20710;BME280;10516;51.518;9.864;2023-04-21T10:08:44;98672.94;;;14.16;67.47
20710;BME280;10516;51.518;9.864;2023-04-21T10:11:10;98668.16;;;14.13;66.17
20710;BME280;10516;51.518;9.864;2023-04-21T10:13:35;98654.13;;;14.26;65.70
20710;BME280;10516;51.518;9.864;2023-04-21T10:16:04;98650.28;;;14.47;65.76
20710;BME280;10516;51.518;9.864;2023-04-21T10:18:31;98649.53;;;14.37;65.13
20710;BME280;10516;51.518;9.864;2023-04-21T10:21:00;98650.59;;;14.41;65.32
20710;BME280;10516;51.518;9.864;2023-04-21T10:26:05;98644.28;;;14.60;64.19
20710;BME280;10516;51.518;9.864;2023-04-21T10:28:45;98645.19;;;14.84;66.67
20710;BME280;10516;51.518;9.864;2023-04-21T10:31:17;98634.06;;;14.96;63.79
20710;BME280;10516;51.518;9.864;2023-04-21T10:36:27;98632.53;;;15.14;62.25
20710;BME280;10516;51.518;9.864;2023-04-21T10:38:59;98626.75;;;15.30;61.70
20710;BME280;10516;51.518;9.864;2023-04-21T10:41:25;98631.22;;;15.40;62.67
20710;BME280;10516;51.518;9.864;2023-04-21T10:43:56;98622.75;;;15.28;61.88
20710;BME280;10516;51.518;9.864;2023-04-21T10:46:35;98617.84;;;15.35;62.92
20710;BME280;10516;51.518;9.864;2023-04-21T10:49:42;98616.97;;;15.16;61.01
20710;BME280;10516;51.518;9.864;2023-04-21T10:54:28;98612.53;;;15.25;61.00
20710;BME280;10516;51.518;9.864;2023-04-21T10:56:55;98609.16;;;15.14;60.60
20710;BME280;10516;51.518;9.864;2023-04-21T10:59:20;98599.72;;;15.17;60.45
20710;BME280;10516;51.518;9.864;2023-04-21T11:01:46;98610.16;;;15.23;62.62
20710;BME280;10516;51.518;9.864;2023-04-21T11:04:17;98602.22;;;15.37;61.34
20710;BME280;10516;51.518;9.864;2023-04-21T11:07:03;98593.00;;;15.43;63.13
20710;BME280;10516;51.518;9.864;2023-04-21T11:09:28;98602.31;;;15.55;60.90
20710;BME280;10516;51.518;9.864;2023-04-21T11:11:58;98595.44;;;15.68;61.55
20710;BME280;10516;51.518;9.864;2023-04-21T11:14:23;98587.75;;;15.80;61.08
20710;BME280;10516;51.518;9.864;2023-04-21T11:16:48;98591.41;;;15.89;60.82
20710;BME280;10516;51.518;9.864;2023-04-21T11:19:14;98582.47;;;15.94;60.12
20710;BME280;10516;51.518;9.864;2023-04-21T11:21:39;98586.75;;;15.95;60.45
20710;BME280;10516;51.518;9.864;2023-04-21T11:24:05;98576.31;;;16.12;60.08
20710;BME280;10516;51.518;9.864;2023-04-21T11:26:33;98580.97;;;16.25;60.04
20710;BME280;10516;51.518;9.864;2023-04-21T11:29:06;98572.44;;;16.36;59.36
20710;BME280;10516;51.518;9.864;2023-04-21T11:31:31;98575.19;;;15.94;58.54
20710;BME280;10516;51.518;9.864;2023-04-21T11:33:57;98572.13;;;15.82;59.01
20710;BME280;10516;51.518;9.864;2023-04-21T11:36:23;98565.72;;;15.97;61.81
20710;BME280;10516;51.518;9.864;2023-04-21T11:38:48;98555.84;;;15.92;59.23
20710;BME280;10516;51.518;9.864;2023-04-21T11:41:20;98563.16;;;16.42;60.10
20710;BME280;10516;51.518;9.864;2023-04-21T11:43:49;98563.88;;;16.53;59.18
20710;BME280;10516;51.518;9.864;2023-04-21T11:46:24;98568.94;;;16.87;58.14
20710;BME280;10516;51.518;9.864;2023-04-21T11:49:00;98560.00;;;17.05;56.68
20710;BME280;10516;51.518;9.864;2023-04-21T11:51:26;98555.84;;;17.26;56.86
20710;BME280;10516;51.518;9.864;2023-04-21T11:53:57;98559.13;;;17.37;55.56
20710;BME280;10516;51.518;9.864;2023-04-21T11:56:22;98555.03;;;17.39;55.37
20710;BME280;10516;51.518;9.864;2023-04-21T11:58:48;98558.22;;;17.14;55.98
20710;BME280;10516;51.518;9.864;2023-04-21T12:01:15;98549.25;;;17.32;56.54
20710;BME280;10516;51.518;9.864;2023-04-21T12:03:40;98553.47;;;17.38;56.17
20710;BME280;10516;51.518;9.864;2023-04-21T12:06:06;98544.47;;;17.43;55.19
20710;BME280;10516;51.518;9.864;2023-04-21T12:08:31;98543.47;;;17.52;55.02
20710;BME280;10516;51.518;9.864;2023-04-21T12:10:56;98546.66;;;17.54;57.37
20710;BME280;10516;51.518;9.864;2023-04-21T12:13:23;98561.56;;;17.79;54.43
20710;BME280;10516;51.518;9.864;2023-04-21T12:15:49;98553.06;;;17.85;54.42
20710;BME280;10516;51.518;9.864;2023-04-21T12:18:14;98538.91;;;18.02;53.57
20710;BME280;10516;51.518;9.864;2023-04-21T12:20:49;98531.47;;;18.21;53.57
20710;BME280;10516;51.518;9.864;2023-04-21T12:23:15;98535.78;;;18.09;54.47
20710;BME280;10516;51.518;9.864;2023-04-21T12:25:41;98532.91;;;18.41;53.81
20710;BME280;10516;51.518;9.864;2023-04-21T12:28:07;98530.84;;;18.24;54.71
20710;BME280;10516;51.518;9.864;2023-04-21T12:30:33;98534.72;;;18.32;55.84
20710;BME280;10516;51.518;9.864;2023-04-21T12:32:58;98525.69;;;18.36;52.37
20710;BME280;10516;51.518;9.864;2023-04-21T12:35:24;98536.06;;;18.56;53.46
20710;BME280;10516;51.518;9.864;2023-04-21T12:37:49;98535.53;;;18.77;53.61
20710;BME280;10516;51.518;9.864;2023-04-21T12:40:15;98536.75;;;18.93;53.21
20710;BME280;10516;51.518;9.864;2023-04-21T12:42:40;98527.34;;;18.90;51.46
20710;BME280;10516;51.518;9.864;2023-04-21T12:45:06;98531.75;;;19.08;51.19
20710;BME280;10516;51.518;9.864;2023-04-21T12:47:31;98527.81;;;19.23;52.87
20710;BME280;10516;51.518;9.864;2023-04-21T12:49:56;98529.34;;;19.37;52.44
20710;BME280;10516;51.518;9.864;2023-04-21T12:52:22;98533.03;;;19.41;48.73
20710;BME280;10516;51.518;9.864;2023-04-21T12:54:47;98524.03;;;19.63;49.82
20710;BME280;10516;51.518;9.864;2023-04-21T12:57:12;98528.38;;;19.98;51.57
20710;BME280;10516;51.518;9.864;2023-04-21T12:59:39;98532.34;;;19.84;50.56
20710;BME280;10516;51.518;9.864;2023-04-21T13:02:05;98526.78;;;20.06;49.35
20710;BME280;10516;51.518;9.864;2023-04-21T13:04:30;98524.06;;;20.14;50.50
20710;BME280;10516;51.518;9.864;2023-04-21T13:06:56;98527.75;;;20.10;50.89
20710;BME280;10516;51.518;9.864;2023-04-21T13:09:21;98523.00;;;20.33;50.71